< < Back
Terminal Aerodrome Forecast


Current Version              Previous Versions:   1  2  3  4  5  6  7  8  9  

Terminal Aerodrome Forecast

819
FTUS44 KMRX 062326
TAFTYS
TAF
KTYS 062326Z 0700/0724 VRB03KT P6SM BKN250
     FM070800 VRB03KT P6SM SKC
     FM071800 26005KT P6SM BKN250=

Latest METAR

775
SAUS80 KWBC 070600
MTRTYS
METAR KTYS 070553Z 00000KT 10SM SCT150 SCT250 01/M04 A3023 RMK AO2
SLP241 T00111044 10056 20006 58012


USA.gov is the U.S. government's official web portal to all federal, state and local government web resources and services.